sensor_id;sensor_type;location;lat;lon;timestamp;pressure;altitude;pressure_sealevel;temperature;humidity
39309;BME280;26019;47.510;19.122;2024-01-30T00:09:46;102611.50;;;-1.12;100.00
39309;BME280;26019;47.510;19.122;2024-01-30T00:19:49;102604.41;;;-1.16;100.00
39309;BME280;26019;47.510;19.122;2024-01-30T00:29:51;102600.00;;;-1.18;100.00
39309;BME280;26019;47.510;19.122;2024-01-30T00:39:59;102615.59;;;-1.24;100.00
39309;BME280;26019;47.510;19.122;2024-01-30T00:50:03;102621.50;;;-1.36;100.00
39309;BME280;26019;47.510;19.122;2024-01-30T01:00:05;102616.69;;;-1.32;100.00
39309;BME280;26019;47.510;19.122;2024-01-30T01:10:09;102608.84;;;-1.46;100.00
39309;BME280;26019;47.510;19.122;2024-01-30T01:20:15;102600.97;;;-1.49;100.00
39309;BME280;26019;47.510;19.122;2024-01-30T01:30:39;102607.81;;;-1.48;100.00
39309;BME280;26019;47.510;19.122;2024-01-30T01:40:41;102596.97;;;-1.68;100.00
39309;BME280;26019;47.510;19.122;2024-01-30T01:50:43;102587.59;;;-1.69;100.00
39309;BME280;26019;47.510;19.122;2024-01-30T02:00:46;102592.94;;;-1.76;100.00
39309;BME280;26019;47.510;19.122;2024-01-30T02:10:48;102585.19;;;-1.77;100.00
39309;BME280;26019;47.510;19.122;2024-01-30T02:20:53;102588.38;;;-1.80;100.00
39309;BME280;26019;47.510;19.122;2024-01-30T02:30:55;102578.09;;;-1.71;100.00
39309;BME280;26019;47.510;19.122;2024-01-30T02:40:57;102580.53;;;-1.83;100.00
39309;BME280;26019;47.510;19.122;2024-01-30T02:51:00;102589.28;;;-2.00;100.00
39309;BME280;26019;47.510;19.122;2024-01-30T03:01:02;102584.47;;;-1.97;100.00
39309;BME280;26019;47.510;19.122;2024-01-30T03:11:04;102576.38;;;-2.03;100.00
39309;BME280;26019;47.510;19.122;2024-01-30T03:21:07;102575.59;;;-2.02;100.00
39309;BME280;26019;47.510;19.122;2024-01-30T03:31:08;102582.06;;;-2.16;100.00
39309;BME280;26019;47.510;19.122;2024-01-30T03:41:10;102576.25;;;-2.15;100.00
39309;BME280;26019;47.510;19.122;2024-01-30T03:51:12;102560.03;;;-2.17;100.00
39309;BME280;26019;47.510;19.122;2024-01-30T04:01:17;102557.63;;;-2.36;100.00
39309;BME280;26019;47.510;19.122;2024-01-30T04:11:20;102556.34;;;-2.42;100.00
39309;BME280;26019;47.510;19.122;2024-01-30T04:21:22;102542.94;;;-2.41;100.00
39309;BME280;26019;47.510;19.122;2024-01-30T04:31:26;102547.25;;;-2.50;100.00
39309;BME280;26019;47.510;19.122;2024-01-30T04:41:28;102556.47;;;-2.50;100.00
39309;BME280;26019;47.510;19.122;2024-01-30T04:51:37;102562.59;;;-2.38;100.00
39309;BME280;26019;47.510;19.122;2024-01-30T05:01:40;102567.13;;;-2.44;100.00
39309;BME280;26019;47.510;19.122;2024-01-30T05:11:45;102577.75;;;-2.59;100.00
39309;BME280;26019;47.510;19.122;2024-01-30T05:21:46;102577.59;;;-2.71;100.00
39309;BME280;26019;47.510;19.122;2024-01-30T05:31:48;102593.16;;;-2.76;100.00
39309;BME280;26019;47.510;19.122;2024-01-30T05:41:50;102604.19;;;-2.65;100.00
39309;BME280;26019;47.510;19.122;2024-01-30T05:51:53;102604.06;;;-2.57;100.00
39309;BME280;26019;47.510;19.122;2024-01-30T06:01:55;102604.31;;;-2.64;100.00
39309;BME280;26019;47.510;19.122;2024-01-30T06:11:57;102603.81;;;-2.70;100.00
39309;BME280;26019;47.510;19.122;2024-01-30T06:21:59;102615.19;;;-2.75;100.00
39309;BME280;26019;47.510;19.122;2024-01-30T06:32:01;102614.41;;;-2.85;100.00
39309;BME280;26019;47.510;19.122;2024-01-30T06:42:06;102616.59;;;-2.68;100.00
39309;BME280;26019;47.510;19.122;2024-01-30T06:52:08;102627.41;;;-2.30;100.00
39309;BME280;26019;47.510;19.122;2024-01-30T07:02:22;102617.53;;;-2.16;100.00
39309;BME280;26019;47.510;19.122;2024-01-30T07:12:27;102620.81;;;-1.97;100.00
39309;BME280;26019;47.510;19.122;2024-01-30T07:22:35;102623.06;;;-1.58;100.00
39309;BME280;26019;47.510;19.122;2024-01-30T07:32:37;102629.38;;;-1.10;100.00
39309;BME280;26019;47.510;19.122;2024-01-30T07:42:39;102622.56;;;-0.44;100.00
39309;BME280;26019;47.510;19.122;2024-01-30T07:52:44;102612.16;;;-0.13;100.00
39309;BME280;26019;47.510;19.122;2024-01-30T08:02:46;102610.81;;;0.26;100.00
39309;BME280;26019;47.510;19.122;2024-01-30T08:12:47;102612.75;;;4.12;100.00
39309;BME280;26019;47.510;19.122;2024-01-30T08:22:49;102627.72;;;6.51;80.62
39309;BME280;26019;47.510;19.122;2024-01-30T08:32:51;102627.63;;;7.04;68.47
39309;BME280;26019;47.510;19.122;2024-01-30T08:42:54;102630.72;;;8.59;55.99
39309;BME280;26019;47.510;19.122;2024-01-30T08:52:57;102642.44;;;6.54;63.50
39309;BME280;26019;47.510;19.122;2024-01-30T09:02:59;102623.84;;;6.78;69.06
39309;BME280;26019;47.510;19.122;2024-01-30T09:13:02;102612.19;;;12.72;48.64
39309;BME280;26019;47.510;19.122;2024-01-30T09:23:04;102599.91;;;14.61;39.71
39309;BME280;26019;47.510;19.122;2024-01-30T09:33:06;102596.59;;;16.53;36.46
39309;BME280;26019;47.510;19.122;2024-01-30T09:43:17;102611.94;;;13.94;40.95
39309;BME280;26019;47.510;19.122;2024-01-30T09:53:25;102604.47;;;14.74;40.82
39309;BME280;26019;47.510;19.122;2024-01-30T10:03:29;102601.84;;;14.71;39.49
39309;BME280;26019;47.510;19.122;2024-01-30T10:13:30;102616.81;;;13.76;41.86
39309;BME280;26019;47.510;19.122;2024-01-30T10:23:33;102597.59;;;13.64;42.78
39309;BME280;26019;47.510;19.122;2024-01-30T10:33:36;102585.72;;;13.80;44.31
39309;BME280;26019;47.510;19.122;2024-01-30T10:43:41;102584.03;;;9.71;51.59
39309;BME280;26019;47.510;19.122;2024-01-30T10:53:50;102544.81;;;15.82;40.29
39309;BME280;26019;47.510;19.122;2024-01-30T11:03:55;102538.59;;;14.78;41.17
39309;BME280;26019;47.510;19.122;2024-01-30T11:14:00;102543.25;;;10.43;47.76
39309;BME280;26019;47.510;19.122;2024-01-30T11:24:04;102520.81;;;13.83;41.79
39309;BME280;26019;47.510;19.122;2024-01-30T11:34:23;102512.13;;;12.43;44.39
39309;BME280;26019;47.510;19.122;2024-01-30T11:44:40;102507.91;;;12.07;44.54
39309;BME280;26019;47.510;19.122;2024-01-30T11:54:42;102498.38;;;12.89;43.50
39309;BME280;26019;47.510;19.122;2024-01-30T12:04:45;102478.91;;;13.63;40.85
39309;BME280;26019;47.510;19.122;2024-01-30T12:14:50;102469.31;;;11.83;43.85
39309;BME280;26019;47.510;19.122;2024-01-30T12:24:52;102451.19;;;13.11;42.67
39309;BME280;26019;47.510;19.122;2024-01-30T12:34:55;102460.06;;;12.32;42.31
39309;BME280;26019;47.510;19.122;2024-01-30T12:45:03;102457.34;;;13.67;38.20
39309;BME280;26019;47.510;19.122;2024-01-30T12:55:08;102438.50;;;15.40;35.99
39309;BME280;26019;47.510;19.122;2024-01-30T13:05:28;102421.53;;;16.04;34.96
39309;BME280;26019;47.510;19.122;2024-01-30T13:15:29;102409.72;;;15.24;35.47
39309;BME280;26019;47.510;19.122;2024-01-30T13:25:46;102419.63;;;15.75;34.04
39309;BME280;26019;47.510;19.122;2024-01-30T13:35:48;102400.44;;;14.60;36.73
39309;BME280;26019;47.510;19.122;2024-01-30T13:45:54;102410.09;;;13.98;36.27
39309;BME280;26019;47.510;19.122;2024-01-30T13:55:58;102406.16;;;12.16;38.72
39309;BME280;26019;47.510;19.122;2024-01-30T14:06:00;102408.59;;;11.33;40.81
39309;BME280;26019;47.510;19.122;2024-01-30T14:16:04;102397.31;;;10.62;42.32
39309;BME280;26019;47.510;19.122;2024-01-30T14:26:10;102377.53;;;8.92;45.76
39309;BME280;26019;47.510;19.122;2024-01-30T14:36:15;102403.66;;;8.77;44.93
39309;BME280;26019;47.510;19.122;2024-01-30T14:46:20;102390.03;;;8.32;45.78
39309;BME280;26019;47.510;19.122;2024-01-30T14:56:23;102399.16;;;8.24;45.84
39309;BME280;26019;47.510;19.122;2024-01-30T15:06:25;102393.53;;;6.81;48.45
39309;BME280;26019;47.510;19.122;2024-01-30T15:16:28;102392.72;;;5.86;50.59
39309;BME280;26019;47.510;19.122;2024-01-30T15:26:31;102387.56;;;5.86;52.00
39309;BME280;26019;47.510;19.122;2024-01-30T15:36:32;102384.81;;;5.27;54.68
39309;BME280;26019;47.510;19.122;2024-01-30T15:46:38;102393.97;;;5.05;60.47
39309;BME280;26019;47.510;19.122;2024-01-30T15:56:41;102389.69;;;4.87;61.94
39309;BME280;26019;47.510;19.122;2024-01-30T16:06:44;102401.88;;;4.58;71.33
39309;BME280;26019;47.510;19.122;2024-01-30T16:16:46;102403.47;;;4.40;75.65
39309;BME280;26019;47.510;19.122;2024-01-30T16:26:50;102407.34;;;4.16;81.75
39309;BME280;26019;47.510;19.122;2024-01-30T16:36:53;102403.75;;;3.96;89.43
39309;BME280;26019;47.510;19.122;2024-01-30T16:46:55;102402.56;;;3.59;94.01
39309;BME280;26019;47.510;19.122;2024-01-30T16:56:56;102402.03;;;3.50;100.00
39309;BME280;26019;47.510;19.122;2024-01-30T17:07:00;102397.84;;;3.36;100.00
39309;BME280;26019;47.510;19.122;2024-01-30T17:17:05;102393.06;;;2.97;100.00
39309;BME280;26019;47.510;19.122;2024-01-30T17:27:14;102391.78;;;2.75;100.00
39309;BME280;26019;47.510;19.122;2024-01-30T17:37:16;102384.03;;;2.59;100.00
39309;BME280;26019;47.510;19.122;2024-01-30T17:47:21;102386.03;;;2.36;100.00
39309;BME280;26019;47.510;19.122;2024-01-30T17:57:26;102374.81;;;2.19;100.00
39309;BME280;26019;47.510;19.122;2024-01-30T18:07:40;102375.91;;;2.09;100.00
39309;BME280;26019;47.510;19.122;2024-01-30T18:17:43;102368.31;;;1.96;100.00
39309;BME280;26019;47.510;19.122;2024-01-30T18:27:45;102367.13;;;1.90;100.00
39309;BME280;26019;47.510;19.122;2024-01-30T18:37:50;102374.13;;;1.79;100.00
39309;BME280;26019;47.510;19.122;2024-01-30T18:47:53;102375.09;;;1.68;100.00
39309;BME280;26019;47.510;19.122;2024-01-30T18:57:57;102362.25;;;1.53;100.00
39309;BME280;26019;47.510;19.122;2024-01-30T19:08:00;102371.19;;;1.46;100.00
39309;BME280;26019;47.510;19.122;2024-01-30T19:18:04;102373.91;;;1.36;100.00
39309;BME280;26019;47.510;19.122;2024-01-30T19:28:07;102365.66;;;1.13;100.00
39309;BME280;26019;47.510;19.122;2024-01-30T19:38:10;102367.50;;;1.02;100.00
39309;BME280;26019;47.510;19.122;2024-01-30T19:48:15;102364.50;;;0.83;100.00
39309;BME280;26019;47.510;19.122;2024-01-30T19:58:20;102362.19;;;0.61;100.00
39309;BME280;26019;47.510;19.122;2024-01-30T20:08:22;102360.63;;;0.37;100.00
39309;BME280;26019;47.510;19.122;2024-01-30T20:18:25;102362.53;;;0.28;100.00
39309;BME280;26019;47.510;19.122;2024-01-30T20:28:28;102368.41;;;0.27;100.00
39309;BME280;26019;47.510;19.122;2024-01-30T20:38:32;102371.84;;;0.16;100.00
39309;BME280;26019;47.510;19.122;2024-01-30T20:48:36;102364.59;;;-0.04;100.00
39309;BME280;26019;47.510;19.122;2024-01-30T20:58:40;102356.91;;;-0.17;100.00
39309;BME280;26019;47.510;19.122;2024-01-30T21:08:42;102359.78;;;-0.24;100.00
39309;BME280;26019;47.510;19.122;2024-01-30T21:18:46;102358.03;;;-0.37;100.00
39309;BME280;26019;47.510;19.122;2024-01-30T21:28:49;102359.13;;;-0.46;100.00
39309;BME280;26019;47.510;19.122;2024-01-30T21:38:52;102344.44;;;-0.50;100.00
39309;BME280;26019;47.510;19.122;2024-01-30T21:48:55;102347.22;;;-0.58;100.00
39309;BME280;26019;47.510;19.122;2024-01-30T21:58:57;102329.53;;;-0.57;100.00
39309;BME280;26019;47.510;19.122;2024-01-30T22:08:59;102321.13;;;-0.56;100.00
39309;BME280;26019;47.510;19.122;2024-01-30T22:19:01;102319.81;;;-0.74;100.00
39309;BME280;26019;47.510;19.122;2024-01-30T22:29:03;102318.28;;;-0.84;100.00
39309;BME280;26019;47.510;19.122;2024-01-30T22:39:07;102316.94;;;-0.91;100.00
39309;BME280;26019;47.510;19.122;2024-01-30T22:49:12;102322.75;;;-1.04;100.00
39309;BME280;26019;47.510;19.122;2024-01-30T22:59:15;102323.28;;;-1.20;100.00
39309;BME280;26019;47.510;19.122;2024-01-30T23:09:19;102311.56;;;-1.30;100.00
39309;BME280;26019;47.510;19.122;2024-01-30T23:19:21;102311.34;;;-1.33;100.00
39309;BME280;26019;47.510;19.122;2024-01-30T23:29:26;102307.56;;;-1.38;100.00
39309;BME280;26019;47.510;19.122;2024-01-30T23:39:28;102286.94;;;-1.43;100.00
39309;BME280;26019;47.510;19.122;2024-01-30T23:49:32;102290.88;;;-1.46;100.00
39309;BME280;26019;47.510;19.122;2024-01-30T23:59:37;102287.78;;;-1.54;100.00
